Eastaboga, Alabama
Current Conditions -  °F | °C
As of 1:15 PM on Sunday 21 Dec 2014 (Local Time) from KASN Reporting Station
Overcast Overcast  
Wind Chill: 56°   Ceiling: 2200
Heat Index: 56°   Visibility: 10mi
Dew Point: 47°   Wind: 8mph
Humidity: 73%   Direction: 70°ENE
Pressure: 30.09"   Gusts: NA
Location:  33.61°N, 86.02°W
Report Text: KASN 211915Z AUTO 07007KT 10SM OVC022 13/09 A3009 RMK AO2 T01330085
Loading
Personal Weather Stations






























Interactive Weather Map New forecast layout! Learn more

10-Day Weather Forecast

Advertisements
Track Severe Weather on mobile